Change Date:Time:

Metar of : 6/21/2021 1900UTC
69%47%72%59%23%61%
 Station  Wind Direction  Speed  Visibility Clouds Temperature Pressure Humidity
OPAK 00000KT 6000 NSC 30/17 Q0997 44%
ATTOCK --- 00KT 6000m Clear 30oC 997hp 44%
OPBR 00000KT 6000 NSC 32/21 52%
BAHAWALNAGAR --- 00KT 6000m Clear 32oC 52%
OPBW 05006KT 3000 FU SCT100 29/23 Q1001 71%
BAHAWALPUR A/P NE 06KT 3000m Partly Cloudy 29oC 1001hp 71%
OPBKR 23002KT 6000 SCT 100 28/22 74%
BHAKKAR SW 02KT 6000m Partly Cloudy 28oC 74%
OPCK 00000KT 7000 FEW 100 27/18 60%
CHAKWAL --- 00KT 7000m Partly Cloudy 27oC 60%
OPKE 211900Z 22508KT 6000 NSC 32/25 Q1002 RH69%
CHHOR SW 08KT 6000m Clear 32oC 1002hp 69%
OPDG 13004KT 4000 VCTS FEW030CB SCT040 SCT100 25/23 Q1001 92%
D G KHAN SE 04KT 4000m Partly Cloudy 25oC 1001hp 92%
OPFA 00000KT 4000 FU NSC 28/24 Q1002 NOSIG 77%
FAISALABAD --- 00KT 4000m Smoke Haze 28oC 1002hp 77%
OPGP 00000KT 8000 NSC 26/18 60%
GARHI DOPATTA --- 00KT 8000m Clear 26oC 60%
OPGW 27004KT CAVOK 31/21 56%
GUJRANWALA W 04KT Clear 31oC 56%
OPUG 23004KT 5000 FU NSC 31/21 54%
GUJRAT SW 04KT 5000m Smoke Haze 31oC 54%
OPHD 00000KT CAVOK 28/20 60%
HAFIZABAD --- 00KT Clear 28oC 60%
OPIS 23006KT 6000 NSC 26/14 Q1003 NOSIG RH47%
ISLAMABAD A/P SW 06KT 6000m Clear 26oC 1003hp 47%
OPHQ 00000KT NSC 24/16 Q1002 RH 58%
ISLAMABAD CITY --- 00KT Clear 24oC 1002hp 58%
OPJG 00000KT 5000 FU NSC 27/23 Q1001 77%
JHANG --- 00KT 5000m Smoke Haze 27oC 1001hp 77%
OPJM 00000KT 7000 FEW120 30/20 56%
JHELUM --- 00KT 7000m Partly Cloudy 30oC 56%
OPJBD 00000KT 6000 FEW120 29/25 78%
JOHARABAD --- 00KT 6000m Partly Cloudy 29oC 78%
OPKC 211900Z 27012KT 6000 SCT030 31/25 Q1003 RH72%
KARACHI W 12KT 6000m Partly Cloudy 31oC 1003hp 72%
OPKRL 00000KT 5000 FU SCT100 28/21 67%
KAROR (LAYYAH) --- 00KT 5000m Partly Cloudy 28oC 67%
OPKS 23002KT 4000 FU NSC 31/22 59%
KASUR SW 02KT 4000m Smoke Haze 31oC 59%
OPKW 00000KT 4000 FU SCT120 28/22 1000 70%
KHANEWAL --- 00KT 4000m Partly Cloudy 28oC 1000hp 70%
OPKP 00000KT 4000 FU SCT120 31/24 66%
KHANPUR --- 00KT 4000m Partly Cloudy 31oC 66%
OPKAD 00000KT 6000 FEW120 30/23 Q0999 65%
KOT ADDU --- 00KT 6000m Partly Cloudy 30oC 999hp 65%
OPKL 05002KT 6000 NSC 28/19 56%
KOTLI NE 02KT 6000m Clear 28oC 56%
OPLA 00000KT 4000 HZ NSC 31/18 Q1001 A2958 NOSIG 48%
LAHORE A/P --- 00KT 4000m Haze 31oC 1001hp 48%
OPMB 00000KT 5000 FU NSC 31/18 Q1001 48%
MANDI BAHAUDDIN --- 00KT 5000m Smoke Haze 31oC 1001hp 48%
OPMIT 211900Z 22510KT 6000 NSC 30/24 Q1001 72%
MITHI SW 10KT 6000m Clear 30oC 1001hp 72%
OPMT 00000KT 4000 FU SCT040 BKN100 31/22 Q1001 TEMPO RH59%
MULTAN --- 00KT 4000m Partly Cloudy 31oC 1001hp 59%
OPME 36002KT 6000 NSC 19/08 50%
MURREE N 02KT 6000m Clear 19oC 50%
OPNL 00000KT 3000 HZ NSC 31/19 Q1002 48%
NAROWAL --- 00KT 3000m Haze 31oC 1002hp 48%
OPNPT 00000KT 8000 NSC 28/23 74%
NOOR PUR THAL --- 00KT 8000m Clear 28oC 74%
OPOK 00000KT 4000 FU NSC 30/23 Q1003 65%
OKARA --- 00KT 4000m Smoke Haze 30oC 1003hp 65%
OPPG 211900Z 31006KT 4000 HZ NSC 30/07 Q1011 RH23%
PANJGUR NW 06KT 4000m Haze 30oC 1011hp 23%
OPRK 00000KT 6000 33/24 Q1002 RH61%
R Y KHAN --- 00KT 6000m 33oC 1002hp 61%
OPRT 00000KT 6000 NSC 16/15 Q1015 95%
RAWALAKOT --- 00KT 6000m Clear 16oC 1015hp 95%
OPSW 00000KT 5000 FU NSC 31/24 Q 1000 66%
SAHIWAL --- 00KT 5000m Smoke Haze 31oC 1000hp 66%
OPSG 09002KT 4000 FU NSC 31/19 51%
SARGODHA CITY E 02KT 4000m Smoke Haze 31oC 51%
OPST 27004KT 4000 HZ NSC 28/16 Q1002 NOSIG 48%
SIALKOT A/P W 04KT 4000m Haze 28oC 1002hp 48%
OPSKT 00000KT 6000 NSC 30/19 50%
SIALKOT CITY --- 00KT 6000m Clear 30oC 50%
OPTS 05002KT 5000 FU SCT100 27/23 81%
T T SINGH NE 02KT 5000m Partly Cloudy 27oC 81%